Station: Norseman Airport

  Atmospheric Gas Attenuation - ITU Rec 676-11   --------------- db/100km ---------------
Date Time Temp RH % AH g/m3 Dew Point Wind Direction Speed kph Gust kph Barometer mB Rainfall Since 9am 24GHz 47GHz 76GHz 122GHz 134GHz 241GHz
04 03:40 2.6 100 5.79 2.6 0 0 1007.8 5.8 14.0 24.2 33.2 86.9 72.6 246.5
04 03:30 2.3 100 5.68 2.3 0 0 1007.7 5.8 13.8 24.1 32.9 86.0 71.3 242.1
04 03:20 3.1 100 5.99 3.1 0 0 1007.8 5.8 14.4 24.4 33.9 88.6 74.8 254.5
04 03:10 3.3 100 6.07 3.3 0 0 1007.9 5.8 14.6 24.5 34.1 89.3 75.7 257.7
04 03:00 2.6 100 5.79 2.6 0 0 1008 5.8 14.0 24.2 33.2 86.9 72.6 246.5
04 02:50 2.7 100 5.83 2.7 0 0 1008.2 5.8 14.1 24.3 33.4 87.3 73.0 248.2
04 02:40 2.5 100 5.75 2.5 7 7 1008.1 5.8 13.9 24.2 33.1 86.6 72.1 244.9
04 02:30 3.5 100 6.15 3.5 0 0 1008.4 5.8 14.8 24.6 34.4 90.0 76.7 261.0
04 02:20 4.8 100 6.71 4.8 0 0 1008.6 5.8 15.9 25.2 36.2 94.7 83.1 283.6
04 02:10 5.5 100 7.03 5.5 7 9 1008.8 5.8 16.6 25.5 37.2 97.5 86.7 296.6
04 02:00 4.4 100 6.53 4.4 11 15 1009.1 5.8 15.6 25.0 35.6 93.2 81.0 276.5
04 01:50 3.4 100 6.11 3.4 9 9 1008.7 5.8 14.7 24.6 34.3 89.7 76.2 259.5
04 01:30 3.4 100 6.11 3.4 0 0 1009 5.8 14.7 24.6 34.3 89.7 76.3 259.6
04 01:20 3.6 100 6.2 3.6 0 0 1008.9 5.8 14.9 24.7 34.6 90.5 77.3 263.2
04 01:10 4.2 100 6.45 4.2 0 0 1009.2 5.8 15.4 24.9 35.4 92.6 80.1 273.3
04 01:00 4.6 100 6.62 4.6 0 0 1009.4 5.8 15.7 25.1 35.9 94.0 82.1 280.2
04 00:50 4.5 100 6.58 4.5 0 0 1009.4 5.8 15.7 25.1 35.8 93.7 81.6 278.6
04 00:40 4.7 100 6.67 4.7 0 0 1009.4 5.8 15.8 25.2 36.1 94.5 82.7 282.2
04 00:30 4.8 100 6.71 4.8 6 11 1009.5 5.8 15.9 25.2 36.2 94.8 83.1 283.8
04 00:20 4.9 100 6.76 4.9 9 11 1009.6 5.8 16.0 25.3 36.4 95.2 83.7 285.9
04 00:10 5 100 6.8 5 7 9 1009.6 5.8 16.1 25.3 36.5 95.6 84.2 287.5
04 00:00 5.1 100 6.85 5.1 9 11 1009.6 5.8 16.2 25.4 36.6 96.0 84.8 289.6
03 23:50 5.2 99 6.82 5.1 11 11 1009.7 5.8 16.1 25.3 36.5 95.6 84.2 287.8
03 23:40 5.4 99 6.91 5.3 7 9 1009.5 5.8 16.3 25.4 36.8 96.3 85.2 291.3
03 23:30 5.5 99 6.96 5.4 9 13 1009.7 5.8 16.4 25.4 36.9 96.8 85.8 293.4
03 23:20 5.9 99 7.14 5.8 9 9 1009.9 5.8 16.8 25.6 37.5 98.3 87.9 300.7
03 23:10 6 99 7.19 5.9 7 9 1010.1 5.8 16.9 25.7 37.7 98.8 88.5 302.8
03 23:00 6.4 99 7.38 6.3 9 11 1010.2 5.8 17.3 25.9 38.3 100.4 90.7 310.5
03 22:50 6.7 99 7.53 6.6 9 11 1010 5.8 17.6 26.1 38.8 101.7 92.4 316.6
03 22:40 7.1 99 7.72 7 7 7 1010.4 5.8 18.0 26.3 39.4 103.4 94.6 324.3
03 22:30 7.3 99 7.83 7.2 6 9 1010.7 5.8 18.2 26.4 39.8 104.4 95.9 328.9
03 22:20 7.4 99 7.88 7.3 0 0 1010.5 5.8 18.3 26.5 39.9 104.8 96.5 330.9
03 22:10 7.4 99 7.88 7.3 6 7 1010.4 5.8 18.3 26.5 39.9 104.8 96.5 330.9
03 22:00 7.3 99 7.83 7.2 0 0 1010.4 5.8 18.2 26.4 39.8 104.3 95.9 328.9
03 21:50 7.6 97 7.82 7.2 0 0 1010.4 5.8 18.2 26.3 39.6 103.8 95.4 327.1
03 21:40 7.9 95 7.81 7.1 0 0 1010.4 5.8 18.2 26.2 39.4 103.3 94.9 325.4
03 21:30 7.8 93 7.59 6.7 4 7 1010.3 5.8 17.7 25.9 38.5 101.0 91.9 315.1
03 21:20 8.3 93 7.84 7.2 6 6 1010.1 5.8 18.2 26.1 39.3 103.1 94.8 325.1
03 21:10 8.4 94 7.98 7.5 7 7 1010.2 5.8 18.5 26.3 39.8 104.5 96.6 331.4
03 21:00 8.6 97 8.34 8.2 9 13 1010.2 5.8 19.3 26.9 41.3 108.3 101.4 348.2
03 20:50 8.5 99 8.46 8.4 9 9 1010.3 5.8 19.6 27.1 41.8 109.9 103.2 354.5
03 20:40 8.7 99 8.56 8.6 7 9 1010.2 5.8 19.8 27.2 42.1 110.7 104.3 358.5
03 20:30 8.8 99 8.62 8.7 9 11 1010.2 5.8 19.9 27.3 42.3 111.3 105.0 361.0
03 20:20 9.1 99 8.79 9 9 13 1010 5.8 20.2 27.5 42.9 112.7 107.0 368.0
03 20:10 9 99 8.73 8.9 11 13 1010 5.8 20.1 27.4 42.7 112.2 106.3 365.5
03 20:00 9.2 99 8.84 9.1 7 11 1010 5.8 20.3 27.6 43.1 113.2 107.6 370.0
03 19:50 9.3 99 8.9 9.2 9 9 1010 5.8 20.5 27.6 43.3 113.7 108.3 372.5
03 19:40 9.3 99 8.9 9.2 9 9 1010 5.8 20.5 27.6 43.3 113.7 108.3 372.5
03 19:30 9.3 99 8.9 9.2 9 13 1009.9 5.8 20.5 27.6 43.3 113.7 108.3 372.4
03 19:20 9.4 99 8.96 9.3 13 15 1009.9 5.8 20.6 27.7 43.5 114.3 109.0 374.9
03 19:10 9.4 99 8.96 9.3 13 15 1009.9 5.6 20.6 27.7 43.5 114.3 109.0 374.9
03 19:00 9.5 99 9.01 9.4 15 20 1009.8 5.6 20.7 27.8 43.6 114.7 109.5 376.9
03 18:50 9.4 99 8.96 9.3 19 20 1009.8 5.6 20.6 27.7 43.5 114.2 109.0 374.9
03 18:40 9.5 99 9.01 9.4 24 28 1009.4 5.6 20.7 27.7 43.6 114.6 109.5 376.8
03 18:30 9.6 99 9.07 9.5 26 35 1009.7 5.6 20.8 27.8 43.8 115.2 110.2 379.4
03 18:20 9.9 98 9.15 9.6 28 32 1009.5 5.6 21.0 27.9 44.0 115.7 110.9 381.8
03 18:10 11.4 92 9.44 10.1 19 20 1009 5.6 21.5 27.9 44.4 116.7 112.8 388.5
03 18:00 11.2 99 10.04 11 13 19 1008.7 5.2 22.8 29.0 47.1 123.9 121.6 419.2
03 17:50 11.5 99 10.23 11.3 13 15 1008.7 4.4 23.2 29.2 47.7 125.6 123.8 427.1
03 17:40 11.6 99 10.29 11.4 13 15 1008.3 3 23.3 29.2 47.9 126.1 124.5 429.5
03 17:30 11.8 92 9.68 10.5 20 24 1008.1 2.8 22.0 28.1 45.1 118.7 115.5 397.9
03 17:20 13.2 75 8.61 8.9 20 22 1008 1.8 19.6 25.9 39.9 104.8 98.9 340.1
03 17:10 14.2 65 7.94 7.7 0 0 1007.4 0 18.2 24.5 36.7 96.4 88.9 305.3
03 17:00 14.3 65 7.99 7.8 7 13 1007.2 0 18.3 24.6 36.9 96.8 89.4 307.1
03 16:50 14.4 64 7.91 7.7 7 9 1007.4 0 18.1 24.4 36.5 95.8 88.3 303.2
03 16:40 14.5 64 7.96 7.8 11 11 1007.4 0 18.2 24.5 36.7 96.2 88.8 305.0
03 16:30 14.5 64 7.96 7.8 11 17 1007.2 0 18.2 24.5 36.7 96.2 88.8 305.0
03 16:20 14.5 65 8.08 8 13 17 1007.2 0 18.5 24.6 37.1 97.5 90.3 310.3
03 16:10 14.5 64 7.96 7.8 15 17 1007.4 0 18.2 24.5 36.7 96.2 88.8 305.0
03 16:00 14.7 64 8.06 8 13 17 1007.3 0 18.4 24.6 37.0 97.0 89.8 308.7
03 15:50 14.8 63 7.98 7.8 15 17 1007.4 0 18.2 24.4 36.6 96.1 88.7 304.8
03 15:40 15.1 64 8.26 8.3 17 19 1007.2 0 18.8 24.8 37.6 98.6 91.9 316.0
03 15:30 14.9 63 8.03 7.9 17 26 1007.3 0 18.3 24.5 36.8 96.5 89.2 306.6
03 15:20 14.9 64 8.16 8.2 19 20 1007.5 0 18.6 24.7 37.3 97.8 90.9 312.4
03 15:10 14.3 66 8.11 8 13 15 1007.8 0 18.5 24.8 37.4 98.1 91.0 312.6
03 15:00 14.1 67 8.13 8.1 15 20 1007.9 0 18.6 24.9 37.6 98.5 91.5 314.4
03 14:50 14.1 67 8.13 8.1 15 17 1008 0 18.6 24.9 37.6 98.5 91.5 314.4
03 14:40 14.1 67 8.13 8.1 11 13 1008 0 18.6 24.9 37.6 98.5 91.5 314.4
03 14:30 14.1 67 8.13 8.1 17 20 1008 0 18.6 24.9 37.6 98.5 91.5 314.4
03 14:20 14.1 67 8.13 8.1 19 20 1008 0 18.6 24.9 37.6 98.5 91.5 314.4
03 14:10 14.2 67 8.18 8.2 17 19 1008 0 18.7 24.9 37.7 98.9 92.0 316.2
03 14:00 14.2 66 8.06 7.9 19 24 1008 0 18.4 24.7 37.2 97.7 90.5 310.8
03 13:50 14.2 67 8.18 8.2 19 20 1008 0 18.7 24.9 37.7 98.9 92.0 316.2
03 13:40 14.3 66 8.11 8 20 24 1008 0 18.5 24.8 37.4 98.1 91.0 312.7
03 13:30 14.2 66 8.06 7.9 24 32 1008.2 0 18.4 24.7 37.2 97.7 90.5 310.9
03 13:20 14 67 8.08 8 20 26 1008.2 0 18.5 24.8 37.4 98.2 91.0 312.6
03 13:10 13.9 69 8.27 8.3 22 24 1008.4 0 18.9 25.2 38.2 100.3 93.6 321.6
03 13:00 14 68 8.2 8.2 22 33 1008.5 0 18.7 25.0 37.9 99.5 92.5 318.1
03 12:50 14.1 70 8.5 8.7 22 26 1008.7 0 19.4 25.5 39.0 102.5 96.3 331.4
03 12:40 13.5 72 8.42 8.6 22 28 1008.8 0 19.2 25.5 39.0 102.5 96.0 330.3
03 12:30 13.5 73 8.54 8.8 22 33 1009.1 0 19.5 25.7 39.5 103.8 97.6 335.9
03 12:20 12.6 84 9.29 10 17 20 1009.3 0 21.1 27.2 43.1 113.2 109.0 375.4
03 12:10 12.5 80 8.8 9.1 20 24 1009.5 0 20.1 26.5 41.1 108.0 102.4 352.5
03 12:00 12.8 77 8.63 8.9 22 33 1009.6 0 19.7 26.1 40.3 105.7 99.8 343.2
03 11:50 12.9 76 8.57 8.8 20 26 1009.7 0 19.6 26.0 40.0 105.0 98.9 340.0
03 11:40 12.5 79 8.69 9 33 35 1010 0 19.8 26.3 40.7 106.8 101.0 347.5
03 11:30 12.8 75 8.4 8.5 22 32 1010.1 0 19.2 25.7 39.4 103.3 96.8 332.6
03 11:20 12.6 75 8.3 8.3 24 32 1010.1 0 19.0 25.6 39.0 102.5 95.7 328.8
03 11:10 12.8 74 8.29 8.3 26 32 1010.2 0 19.0 25.6 38.9 102.1 95.3 327.6
03 11:00 13.1 74 8.44 8.6 26 33 1010.2 0 19.3 25.7 39.4 103.3 96.9 333.2

Last Refresh: 04-Aug-2020 05:27:01

Most of the information presented on this site is sourced from the Bureau of Meteorology.  Copyright in all material sourced from the Bureau of Meteorology resides with the Commonwealth of Australia.